Terminal Aerodrome Forecast
Issued by NWS Wichita, KS

Home | Current Version | Previous Version | Graphics & Text | Print | Product List | Glossary On
Versions: 1 2 3 4 5 6 7 8 9 10 11 12 13 14 15 16
286
FTUS43 KICT 060528
TAFICT
TAF
KICT 060528Z 0606/0706 VRB03KT P6SM SKC
      TEMPO 0606/0607 4SM BR
     FM060700 36016G24KT P6SM SCT150
     FM060900 36012KT P6SM SCT150
     FM062200 36007KT P6SM SCT200
     FM070000 04004KT P6SM BKN200=

USA.gov is the U.S. government's official web portal to all federal, state and local government web resources and services.